sensor_id;sensor_type;location;lat;lon;timestamp;pressure;altitude;pressure_sealevel;temperature;humidity
54042;BME280;41156;51.508;5.406;2023-03-22T00:02:41;100873.16;;;8.97;100.00
54042;BME280;41156;51.508;5.406;2023-03-22T00:05:42;100867.13;;;8.95;100.00
54042;BME280;41156;51.508;5.406;2023-03-22T00:08:43;100864.03;;;8.91;100.00
54042;BME280;41156;51.508;5.406;2023-03-22T00:11:43;100862.34;;;8.90;100.00
54042;BME280;41156;51.508;5.406;2023-03-22T00:14:43;100858.19;;;8.87;100.00
54042;BME280;41156;51.508;5.406;2023-03-22T00:17:44;100858.19;;;8.87;100.00
54042;BME280;41156;51.508;5.406;2023-03-22T00:20:53;100857.59;;;8.92;100.00
54042;BME280;41156;51.508;5.406;2023-03-22T00:23:53;100849.50;;;8.92;100.00
54042;BME280;41156;51.508;5.406;2023-03-22T00:26:54;100853.44;;;8.89;100.00
54042;BME280;41156;51.508;5.406;2023-03-22T00:29:54;100838.09;;;8.90;100.00
54042;BME280;41156;51.508;5.406;2023-03-22T00:32:54;100833.72;;;8.89;100.00
54042;BME280;41156;51.508;5.406;2023-03-22T00:36:00;100829.59;;;8.86;100.00
54042;BME280;41156;51.508;5.406;2023-03-22T00:39:01;100827.50;;;8.82;100.00
54042;BME280;41156;51.508;5.406;2023-03-22T00:42:05;100819.22;;;8.77;100.00
54042;BME280;41156;51.508;5.406;2023-03-22T00:45:07;100819.22;;;8.77;100.00
54042;BME280;41156;51.508;5.406;2023-03-22T00:48:09;100812.59;;;8.79;100.00
54042;BME280;41156;51.508;5.406;2023-03-22T00:51:11;100809.47;;;8.82;100.00
54042;BME280;41156;51.508;5.406;2023-03-22T00:54:12;100808.44;;;8.83;100.00
54042;BME280;41156;51.508;5.406;2023-03-22T00:57:12;100804.28;;;8.87;100.00
54042;BME280;41156;51.508;5.406;2023-03-22T01:00:14;100805.56;;;8.92;100.00
54042;BME280;41156;51.508;5.406;2023-03-22T01:03:15;100793.31;;;8.96;100.00
54042;BME280;41156;51.508;5.406;2023-03-22T01:06:16;100792.72;;;9.00;100.00
54042;BME280;41156;51.508;5.406;2023-03-22T01:09:17;100784.00;;;9.05;100.00
54042;BME280;41156;51.508;5.406;2023-03-22T01:12:18;100788.16;;;9.07;100.00
54042;BME280;41156;51.508;5.406;2023-03-22T01:15:18;100786.91;;;9.10;100.00
54042;BME280;41156;51.508;5.406;2023-03-22T01:18:18;100780.28;;;9.13;100.00
54042;BME280;41156;51.508;5.406;2023-03-22T01:21:19;100775.31;;;9.16;100.00
54042;BME280;41156;51.508;5.406;2023-03-22T01:24:20;100762.66;;;9.17;100.00
54042;BME280;41156;51.508;5.406;2023-03-22T01:27:20;100752.28;;;9.20;100.00
54042;BME280;41156;51.508;5.406;2023-03-22T01:30:20;100739.22;;;9.24;100.00
54042;BME280;41156;51.508;5.406;2023-03-22T01:33:21;100735.06;;;9.28;100.00
54042;BME280;41156;51.508;5.406;2023-03-22T01:36:21;100728.00;;;9.34;100.00
54042;BME280;41156;51.508;5.406;2023-03-22T01:39:21;100728.41;;;9.37;100.00
54042;BME280;41156;51.508;5.406;2023-03-22T01:42:22;100722.59;;;9.40;100.00
54042;BME280;41156;51.508;5.406;2023-03-22T01:45:52;100717.41;;;9.45;100.00
54042;BME280;41156;51.508;5.406;2023-03-22T01:48:52;100711.16;;;9.52;100.00
54042;BME280;41156;51.508;5.406;2023-03-22T01:51:56;100706.19;;;9.55;100.00
54042;BME280;41156;51.508;5.406;2023-03-22T01:54:57;100700.16;;;9.60;100.00
54042;BME280;41156;51.508;5.406;2023-03-22T01:57:58;100693.50;;;9.62;100.00
54042;BME280;41156;51.508;5.406;2023-03-22T02:01:00;100686.66;;;9.67;100.00
54042;BME280;41156;51.508;5.406;2023-03-22T02:04:05;100683.53;;;9.70;100.00
54042;BME280;41156;51.508;5.406;2023-03-22T02:07:09;100677.06;;;9.71;100.00
54042;BME280;41156;51.508;5.406;2023-03-22T02:10:21;100672.72;;;9.70;100.00
54042;BME280;41156;51.508;5.406;2023-03-22T02:20:30;100662.53;;;9.72;100.00
54042;BME280;41156;51.508;5.406;2023-03-22T02:27:14;100657.75;;;9.74;100.00
54042;BME280;41156;51.508;5.406;2023-03-22T02:37:06;100652.75;;;9.77;100.00
54042;BME280;41156;51.508;5.406;2023-03-22T02:40:16;100655.47;;;9.77;100.00
54042;BME280;41156;51.508;5.406;2023-03-22T02:43:30;100648.22;;;9.78;100.00
54042;BME280;41156;51.508;5.406;2023-03-22T02:46:43;100648.00;;;9.79;100.00
54042;BME280;41156;51.508;5.406;2023-03-22T02:49:53;100643.22;;;9.81;100.00
54042;BME280;41156;51.508;5.406;2023-03-22T02:53:11;100644.03;;;9.82;100.00
54042;BME280;41156;51.508;5.406;2023-03-22T02:59:18;100630.53;;;9.82;100.00
54042;BME280;41156;51.508;5.406;2023-03-22T03:02:21;100625.75;;;9.84;100.00
54042;BME280;41156;51.508;5.406;2023-03-22T03:05:23;100625.13;;;9.82;100.00
54042;BME280;41156;51.508;5.406;2023-03-22T03:08:26;100630.75;;;9.80;100.00
54042;BME280;41156;51.508;5.406;2023-03-22T03:11:27;100623.72;;;9.79;100.00
54042;BME280;41156;51.508;5.406;2023-03-22T03:14:30;100625.56;;;9.79;100.00
54042;BME280;41156;51.508;5.406;2023-03-22T03:20:52;100618.53;;;9.78;100.00
54042;BME280;41156;51.508;5.406;2023-03-22T03:27:53;100611.25;;;9.78;100.00
54042;BME280;41156;51.508;5.406;2023-03-22T03:37:12;100616.84;;;9.77;100.00
54042;BME280;41156;51.508;5.406;2023-03-22T03:40:22;100609.19;;;9.74;100.00
54042;BME280;41156;51.508;5.406;2023-03-22T03:43:25;100605.47;;;9.75;100.00
54042;BME280;41156;51.508;5.406;2023-03-22T03:46:26;100612.53;;;9.76;100.00
54042;BME280;41156;51.508;5.406;2023-03-22T03:49:29;100610.84;;;9.75;100.00
54042;BME280;41156;51.508;5.406;2023-03-22T03:52:29;100615.81;;;9.78;100.00
54042;BME280;41156;51.508;5.406;2023-03-22T03:55:31;100621.03;;;9.73;100.00
54042;BME280;41156;51.508;5.406;2023-03-22T03:58:32;100626.66;;;9.71;100.00
54042;BME280;41156;51.508;5.406;2023-03-22T04:01:32;100628.31;;;9.66;100.00
54042;BME280;41156;51.508;5.406;2023-03-22T04:04:33;100624.41;;;9.61;100.00
54042;BME280;41156;51.508;5.406;2023-03-22T04:07:33;100622.34;;;9.57;100.00
54042;BME280;41156;51.508;5.406;2023-03-22T04:10:34;100613.25;;;9.51;100.00
54042;BME280;41156;51.508;5.406;2023-03-22T04:13:34;100613.88;;;9.47;100.00
54042;BME280;41156;51.508;5.406;2023-03-22T04:16:34;100613.06;;;9.46;100.00
54042;BME280;41156;51.508;5.406;2023-03-22T04:19:35;100613.47;;;9.43;100.00
54042;BME280;41156;51.508;5.406;2023-03-22T04:22:36;100610.38;;;9.39;100.00
54042;BME280;41156;51.508;5.406;2023-03-22T04:25:37;100612.66;;;9.36;100.00
54042;BME280;41156;51.508;5.406;2023-03-22T04:28:37;100601.47;;;9.32;100.00
54042;BME280;41156;51.508;5.406;2023-03-22T04:31:38;100587.38;;;9.30;100.00
54042;BME280;41156;51.508;5.406;2023-03-22T04:34:38;100601.06;;;9.29;100.00
54042;BME280;41156;51.508;5.406;2023-03-22T04:37:38;100593.81;;;9.29;100.00
54042;BME280;41156;51.508;5.406;2023-03-22T04:40:39;100592.16;;;9.28;100.00
54042;BME280;41156;51.508;5.406;2023-03-22T04:43:45;100590.28;;;9.29;100.00
54042;BME280;41156;51.508;5.406;2023-03-22T04:46:50;100588.66;;;9.28;100.00
54042;BME280;41156;51.508;5.406;2023-03-22T04:49:50;100592.16;;;9.28;100.00
54042;BME280;41156;51.508;5.406;2023-03-22T04:52:50;100590.50;;;9.27;100.00
54042;BME280;41156;51.508;5.406;2023-03-22T04:55:51;100580.56;;;9.28;100.00
54042;BME280;41156;51.508;5.406;2023-03-22T04:58:51;100588.66;;;9.28;100.00
54042;BME280;41156;51.508;5.406;2023-03-22T05:01:51;100591.09;;;9.29;100.00
54042;BME280;41156;51.508;5.406;2023-03-22T05:04:52;100591.97;;;9.30;100.00
54042;BME280;41156;51.508;5.406;2023-03-22T05:07:52;100582.81;;;9.31;100.00
54042;BME280;41156;51.508;5.406;2023-03-22T05:10:53;100581.56;;;9.33;100.00
54042;BME280;41156;51.508;5.406;2023-03-22T05:13:55;100585.69;;;9.36;100.00
54042;BME280;41156;51.508;5.406;2023-03-22T05:16:55;100577.59;;;9.36;100.00
54042;BME280;41156;51.508;5.406;2023-03-22T05:19:56;100577.59;;;9.36;100.00
54042;BME280;41156;51.508;5.406;2023-03-22T05:22:56;100577.00;;;9.34;100.00
54042;BME280;41156;51.508;5.406;2023-03-22T05:25:57;100574.50;;;9.32;100.00
54042;BME280;41156;51.508;5.406;2023-03-22T05:28:57;100583.22;;;9.34;100.00
54042;BME280;41156;51.508;5.406;2023-03-22T05:31:58;100572.88;;;9.31;100.00
54042;BME280;41156;51.508;5.406;2023-03-22T05:34:58;100579.09;;;9.32;100.00
54042;BME280;41156;51.508;5.406;2023-03-22T05:38:04;100580.97;;;9.31;100.00
54042;BME280;41156;51.508;5.406;2023-03-22T05:41:05;100568.28;;;9.32;100.00
54042;BME280;41156;51.508;5.406;2023-03-22T05:44:05;100568.28;;;9.32;100.00
54042;BME280;41156;51.508;5.406;2023-03-22T05:47:05;100571.81;;;9.32;100.00
54042;BME280;41156;51.508;5.406;2023-03-22T05:50:08;100568.91;;;9.34;100.00
54042;BME280;41156;51.508;5.406;2023-03-22T05:53:09;100583.22;;;9.34;100.00
54042;BME280;41156;51.508;5.406;2023-03-22T05:56:11;100580.94;;;9.38;100.00
54042;BME280;41156;51.508;5.406;2023-03-22T05:59:11;100579.88;;;9.39;100.00
54042;BME280;41156;51.508;5.406;2023-03-22T06:02:11;100585.91;;;9.41;100.00
54042;BME280;41156;51.508;5.406;2023-03-22T06:05:14;100578.63;;;9.41;100.00
54042;BME280;41156;51.508;5.406;2023-03-22T06:08:15;100571.97;;;9.44;100.00
54042;BME280;41156;51.508;5.406;2023-03-22T06:11:16;100576.94;;;9.47;100.00
54042;BME280;41156;51.508;5.406;2023-03-22T06:14:17;100580.03;;;9.51;100.00
54042;BME280;41156;51.508;5.406;2023-03-22T06:17:18;100580.66;;;9.53;100.00
54042;BME280;41156;51.508;5.406;2023-03-22T06:20:18;100575.06;;;9.54;100.00
54042;BME280;41156;51.508;5.406;2023-03-22T06:23:18;100573.78;;;9.57;100.00
54042;BME280;41156;51.508;5.406;2023-03-22T06:26:19;100583.50;;;9.65;100.00
54042;BME280;41156;51.508;5.406;2023-03-22T06:29:19;100587.00;;;9.72;100.00
54042;BME280;41156;51.508;5.406;2023-03-22T06:32:21;100573.69;;;9.77;100.00
54042;BME280;41156;51.508;5.406;2023-03-22T06:35:22;100571.38;;;9.80;100.00
54042;BME280;41156;51.508;5.406;2023-03-22T06:38:22;100577.78;;;9.86;100.00
54042;BME280;41156;51.508;5.406;2023-03-22T06:41:23;100575.88;;;9.93;100.00
54042;BME280;41156;51.508;5.406;2023-03-22T06:44:23;100586.25;;;9.96;100.00
54042;BME280;41156;51.508;5.406;2023-03-22T06:47:24;100580.41;;;9.99;100.00
54042;BME280;41156;51.508;5.406;2023-03-22T06:50:26;100597.81;;;10.04;100.00
54042;BME280;41156;51.508;5.406;2023-03-22T06:53:26;100592.81;;;10.07;100.00
54042;BME280;41156;51.508;5.406;2023-03-22T06:56:27;100579.91;;;10.16;100.00
54042;BME280;41156;51.508;5.406;2023-03-22T06:59:27;100576.88;;;10.31;100.00
54042;BME280;41156;51.508;5.406;2023-03-22T07:02:27;100579.66;;;10.49;100.00
54042;BME280;41156;51.508;5.406;2023-03-22T07:05:27;100591.19;;;10.63;100.00
54042;BME280;41156;51.508;5.406;2023-03-22T07:08:28;100580.53;;;10.68;100.00
54042;BME280;41156;51.508;5.406;2023-03-22T07:11:28;100575.34;;;10.67;100.00
54042;BME280;41156;51.508;5.406;2023-03-22T07:14:28;100583.66;;;10.65;100.00
54042;BME280;41156;51.508;5.406;2023-03-22T07:17:29;100573.06;;;10.64;100.00
54042;BME280;41156;51.508;5.406;2023-03-22T07:20:29;100586.38;;;10.65;100.00
54042;BME280;41156;51.508;5.406;2023-03-22T07:23:32;100579.94;;;10.66;100.00
54042;BME280;41156;51.508;5.406;2023-03-22T07:26:32;100582.13;;;10.76;100.00
54042;BME280;41156;51.508;5.406;2023-03-22T07:29:32;100590.56;;;10.86;100.00
54042;BME280;41156;51.508;5.406;2023-03-22T07:32:33;100596.50;;;10.95;100.00
54042;BME280;41156;51.508;5.406;2023-03-22T07:35:34;100586.41;;;11.02;100.00
54042;BME280;41156;51.508;5.406;2023-03-22T07:38:36;100593.88;;;11.07;100.00
54042;BME280;41156;51.508;5.406;2023-03-22T07:41:37;100591.94;;;11.14;100.00
54042;BME280;41156;51.508;5.406;2023-03-22T07:44:37;100593.28;;;11.23;100.00
54042;BME280;41156;51.508;5.406;2023-03-22T07:47:37;100584.72;;;11.26;100.00
54042;BME280;41156;51.508;5.406;2023-03-22T07:50:37;100583.97;;;11.38;100.00
54042;BME280;41156;51.508;5.406;2023-03-22T07:53:38;100594.19;;;11.54;100.00
54042;BME280;41156;51.508;5.406;2023-03-22T07:56:38;100590.47;;;11.67;100.00
54042;BME280;41156;51.508;5.406;2023-03-22T07:59:38;100588.50;;;11.74;100.00
54042;BME280;41156;51.508;5.406;2023-03-22T08:02:39;100596.16;;;11.77;100.00
54042;BME280;41156;51.508;5.406;2023-03-22T08:05:42;100596.16;;;11.77;100.00
54042;BME280;41156;51.508;5.406;2023-03-22T08:08:43;100596.63;;;11.74;100.00
54042;BME280;41156;51.508;5.406;2023-03-22T08:11:43;100593.31;;;11.72;100.00
54042;BME280;41156;51.508;5.406;2023-03-22T08:14:44;100587.34;;;11.82;100.00
54042;BME280;41156;51.508;5.406;2023-03-22T08:17:49;100603.88;;;11.92;100.00
54042;BME280;41156;51.508;5.406;2023-03-22T08:20:54;100601.81;;;11.94;100.00
54042;BME280;41156;51.508;5.406;2023-03-22T08:23:55;100588.41;;;11.99;100.00
54042;BME280;41156;51.508;5.406;2023-03-22T08:26:55;100599.28;;;12.23;100.00
54042;BME280;41156;51.508;5.406;2023-03-22T08:29:56;100587.69;;;12.46;100.00
54042;BME280;41156;51.508;5.406;2023-03-22T08:32:57;100601.84;;;12.72;100.00
54042;BME280;41156;51.508;5.406;2023-03-22T08:36:06;100598.31;;;12.83;100.00
54042;BME280;41156;51.508;5.406;2023-03-22T08:39:07;100589.22;;;12.89;100.00
54042;BME280;41156;51.508;5.406;2023-03-22T08:42:08;100584.38;;;12.91;98.92
54042;BME280;41156;51.508;5.406;2023-03-22T08:45:09;100586.63;;;12.94;100.00
54042;BME280;41156;51.508;5.406;2023-03-22T08:48:09;100590.41;;;12.93;100.00
54042;BME280;41156;51.508;5.406;2023-03-22T08:51:09;100579.56;;;12.93;100.00
54042;BME280;41156;51.508;5.406;2023-03-22T08:54:10;100575.91;;;13.00;100.00
54042;BME280;41156;51.508;5.406;2023-03-22T08:57:10;100579.88;;;13.09;100.00
54042;BME280;41156;51.508;5.406;2023-03-22T09:00:13;100580.16;;;13.07;99.30
54042;BME280;41156;51.508;5.406;2023-03-22T09:03:13;100579.78;;;13.16;100.00
54042;BME280;41156;51.508;5.406;2023-03-22T09:06:15;100575.28;;;13.21;97.92
54042;BME280;41156;51.508;5.406;2023-03-22T09:09:15;100568.66;;;13.29;100.00
54042;BME280;41156;51.508;5.406;2023-03-22T09:12:16;100579.03;;;13.32;100.00
54042;BME280;41156;51.508;5.406;2023-03-22T09:15:16;100571.75;;;13.32;95.86
54042;BME280;41156;51.508;5.406;2023-03-22T09:18:17;100569.25;;;13.43;100.00
54042;BME280;41156;51.508;5.406;2023-03-22T09:21:17;100560.59;;;13.58;96.58
54042;BME280;41156;51.508;5.406;2023-03-22T09:24:18;100558.63;;;13.70;95.76
54042;BME280;41156;51.508;5.406;2023-03-22T09:27:18;100567.81;;;13.81;96.57
54042;BME280;41156;51.508;5.406;2023-03-22T09:30:18;100561.44;;;13.75;96.56
54042;BME280;41156;51.508;5.406;2023-03-22T09:33:19;100560.28;;;13.71;96.94
54042;BME280;41156;51.508;5.406;2023-03-22T09:36:19;100558.47;;;13.77;96.61
54042;BME280;41156;51.508;5.406;2023-03-22T09:39:20;100560.28;;;13.71;92.69
54042;BME280;41156;51.508;5.406;2023-03-22T09:42:35;100555.59;;;13.66;93.22
54042;BME280;41156;51.508;5.406;2023-03-22T09:45:40;100554.31;;;13.57;94.47
54042;BME280;41156;51.508;5.406;2023-03-22T09:48:43;100550.81;;;13.45;95.59
54042;BME280;41156;51.508;5.406;2023-03-22T09:51:47;100553.44;;;13.40;95.74
54042;BME280;41156;51.508;5.406;2023-03-22T09:54:49;100563.63;;;13.32;95.20
54042;BME280;41156;51.508;5.406;2023-03-22T09:58:18;100562.88;;;13.25;91.91
54042;BME280;41156;51.508;5.406;2023-03-22T10:01:45;100557.81;;;13.17;91.75
54042;BME280;41156;51.508;5.406;2023-03-22T10:08:46;100554.44;;;12.98;95.23
54042;BME280;41156;51.508;5.406;2023-03-22T10:11:58;100553.50;;;12.92;95.69
54042;BME280;41156;51.508;5.406;2023-03-22T10:15:10;100572.97;;;12.89;95.14
54042;BME280;41156;51.508;5.406;2023-03-22T10:18:21;100558.69;;;12.82;92.93
54042;BME280;41156;51.508;5.406;2023-03-22T10:21:22;100571.19;;;12.83;95.80
54042;BME280;41156;51.508;5.406;2023-03-22T10:24:29;100568.84;;;12.75;96.42
54042;BME280;41156;51.508;5.406;2023-03-22T10:27:30;100578.75;;;12.69;96.36
54042;BME280;41156;51.508;5.406;2023-03-22T10:30:36;100581.69;;;12.56;97.72
54042;BME280;41156;51.508;5.406;2023-03-22T10:34:06;100581.91;;;12.43;100.00
54042;BME280;41156;51.508;5.406;2023-03-22T10:37:12;100580.34;;;12.35;100.00
54042;BME280;41156;51.508;5.406;2023-03-22T10:40:24;100583.53;;;12.32;100.00
54042;BME280;41156;51.508;5.406;2023-03-22T10:43:34;100585.66;;;12.30;100.00
54042;BME280;41156;51.508;5.406;2023-03-22T10:46:37;100586.34;;;12.25;100.00
54042;BME280;41156;51.508;5.406;2023-03-22T10:49:42;100588.59;;;12.28;100.00
54042;BME280;41156;51.508;5.406;2023-03-22T10:53:03;100575.03;;;12.28;100.00
54042;BME280;41156;51.508;5.406;2023-03-22T10:56:10;100583.28;;;12.33;100.00
54042;BME280;41156;51.508;5.406;2023-03-22T10:59:47;100575.75;;;12.35;100.00
54042;BME280;41156;51.508;5.406;2023-03-22T11:02:56;100575.84;;;12.29;100.00
54042;BME280;41156;51.508;5.406;2023-03-22T11:06:06;100571.72;;;12.14;100.00
54042;BME280;41156;51.508;5.406;2023-03-22T11:09:19;100572.50;;;12.03;100.00
54042;BME280;41156;51.508;5.406;2023-03-22T11:12:19;100577.34;;;12.01;100.00
54042;BME280;41156;51.508;5.406;2023-03-22T11:15:31;100582.75;;;12.01;100.00
54042;BME280;41156;51.508;5.406;2023-03-22T11:18:33;100567.00;;;12.10;100.00
54042;BME280;41156;51.508;5.406;2023-03-22T11:21:33;100569.38;;;12.18;100.00
54042;BME280;41156;51.508;5.406;2023-03-22T11:24:34;100566.44;;;12.19;100.00
54042;BME280;41156;51.508;5.406;2023-03-22T11:27:34;100562.78;;;12.26;100.00
54042;BME280;41156;51.508;5.406;2023-03-22T11:30:36;100571.19;;;12.36;100.00
54042;BME280;41156;51.508;5.406;2023-03-22T11:33:37;100564.56;;;12.32;100.00
54042;BME280;41156;51.508;5.406;2023-03-22T11:36:43;100566.44;;;12.31;100.00
54042;BME280;41156;51.508;5.406;2023-03-22T11:39:45;100561.63;;;12.33;100.00
54042;BME280;41156;51.508;5.406;2023-03-22T11:42:51;100569.50;;;12.35;100.00
54042;BME280;41156;51.508;5.406;2023-03-22T11:45:55;100565.53;;;12.37;100.00
54042;BME280;41156;51.508;5.406;2023-03-22T11:49:03;100552.44;;;12.46;100.00
54042;BME280;41156;51.508;5.406;2023-03-22T11:52:31;100552.00;;;12.61;100.00
54042;BME280;41156;51.508;5.406;2023-03-22T11:55:33;100554.22;;;12.76;100.00
54042;BME280;41156;51.508;5.406;2023-03-22T12:01:50;100543.38;;;12.88;100.00
54042;BME280;41156;51.508;5.406;2023-03-22T12:04:59;100551.28;;;12.89;100.00
54042;BME280;41156;51.508;5.406;2023-03-22T12:08:08;100532.28;;;12.89;100.00
54042;BME280;41156;51.508;5.406;2023-03-22T12:11:14;100529.00;;;12.87;100.00
54042;BME280;41156;51.508;5.406;2023-03-22T12:14:32;100539.13;;;12.80;100.00
54042;BME280;41156;51.508;5.406;2023-03-22T12:17:48;100538.09;;;12.69;100.00
54042;BME280;41156;51.508;5.406;2023-03-22T12:21:01;100537.13;;;12.64;100.00
54042;BME280;41156;51.508;5.406;2023-03-22T12:24:03;100541.16;;;12.61;100.00
54042;BME280;41156;51.508;5.406;2023-03-22T12:27:21;100540.78;;;12.57;100.00
54042;BME280;41156;51.508;5.406;2023-03-22T12:30:30;100537.00;;;12.58;100.00
54042;BME280;41156;51.508;5.406;2023-03-22T12:33:43;100534.41;;;12.64;100.00
54042;BME280;41156;51.508;5.406;2023-03-22T12:36:48;100525.81;;;12.67;100.00
54042;BME280;41156;51.508;5.406;2023-03-22T12:40:17;100521.69;;;12.64;100.00
54042;BME280;41156;51.508;5.406;2023-03-22T12:43:37;100528.53;;;12.67;100.00
54042;BME280;41156;51.508;5.406;2023-03-22T12:46:48;100534.06;;;12.72;100.00
54042;BME280;41156;51.508;5.406;2023-03-22T12:50:03;100538.91;;;12.70;100.00
54042;BME280;41156;51.508;5.406;2023-03-22T12:53:05;100541.50;;;12.65;100.00
54042;BME280;41156;51.508;5.406;2023-03-22T12:56:10;100529.47;;;12.61;100.00
54042;BME280;41156;51.508;5.406;2023-03-22T12:59:17;100543.97;;;12.54;100.00
54042;BME280;41156;51.508;5.406;2023-03-22T13:02:27;100544.44;;;12.51;100.00
54042;BME280;41156;51.508;5.406;2023-03-22T13:05:32;100548.19;;;12.50;100.00
54042;BME280;41156;51.508;5.406;2023-03-22T13:15:34;100535.59;;;12.44;100.00
54042;BME280;41156;51.508;5.406;2023-03-22T13:21:38;100530.19;;;12.44;100.00
54042;BME280;41156;51.508;5.406;2023-03-22T13:28:01;100518.03;;;12.47;100.00
54042;BME280;41156;51.508;5.406;2023-03-22T13:31:02;100529.69;;;12.47;100.00
54042;BME280;41156;51.508;5.406;2023-03-22T13:34:11;100528.41;;;12.50;100.00
54042;BME280;41156;51.508;5.406;2023-03-22T13:37:32;100515.44;;;12.52;100.00
54042;BME280;41156;51.508;5.406;2023-03-22T13:40:45;100519.22;;;12.51;100.00
54042;BME280;41156;51.508;5.406;2023-03-22T13:43:50;100526.28;;;12.52;100.00
54042;BME280;41156;51.508;5.406;2023-03-22T13:46:52;100515.69;;;12.50;100.00
54042;BME280;41156;51.508;5.406;2023-03-22T13:50:01;100519.59;;;12.54;100.00
54042;BME280;41156;51.508;5.406;2023-03-22T13:53:18;100520.63;;;12.53;100.00
54042;BME280;41156;51.508;5.406;2023-03-22T14:00:02;100514.16;;;12.54;100.00
54042;BME280;41156;51.508;5.406;2023-03-22T14:03:14;100520.41;;;12.55;100.00
54042;BME280;41156;51.508;5.406;2023-03-22T14:06:29;100516.63;;;12.56;100.00
54042;BME280;41156;51.508;5.406;2023-03-22T14:09:34;100517.22;;;12.58;100.00
54042;BME280;41156;51.508;5.406;2023-03-22T14:15:53;100513.19;;;12.61;100.00
54042;BME280;41156;51.508;5.406;2023-03-22T14:18:55;100510.00;;;12.64;100.00
54042;BME280;41156;51.508;5.406;2023-03-22T14:21:58;100503.44;;;12.59;100.00
54042;BME280;41156;51.508;5.406;2023-03-22T14:25:01;100508.50;;;12.56;100.00
54042;BME280;41156;51.508;5.406;2023-03-22T14:28:04;100497.78;;;12.49;100.00
54042;BME280;41156;51.508;5.406;2023-03-22T14:31:11;100496.00;;;12.43;100.00
54042;BME280;41156;51.508;5.406;2023-03-22T14:34:14;100490.81;;;12.42;100.00
54042;BME280;41156;51.508;5.406;2023-03-22T14:37:17;100475.88;;;12.39;100.00
54042;BME280;41156;51.508;5.406;2023-03-22T14:40:29;100487.28;;;12.41;100.00
54042;BME280;41156;51.508;5.406;2023-03-22T14:43:29;100474.56;;;12.42;100.00
54042;BME280;41156;51.508;5.406;2023-03-22T14:46:32;100480.56;;;12.44;100.00
54042;BME280;41156;51.508;5.406;2023-03-22T14:49:38;100482.47;;;12.43;100.00
54042;BME280;41156;51.508;5.406;2023-03-22T14:52:41;100479.75;;;12.43;100.00
54042;BME280;41156;51.508;5.406;2023-03-22T14:55:42;100476.00;;;12.44;100.00
54042;BME280;41156;51.508;5.406;2023-03-22T14:58:45;100470.34;;;12.46;100.00
54042;BME280;41156;51.508;5.406;2023-03-22T15:01:50;100470.34;;;12.46;100.00
54042;BME280;41156;51.508;5.406;2023-03-22T15:04:53;100471.63;;;12.43;100.00
54042;BME280;41156;51.508;5.406;2023-03-22T15:08:06;100467.25;;;12.42;100.00
54042;BME280;41156;51.508;5.406;2023-03-22T15:11:08;100473.41;;;12.37;100.00
54042;BME280;41156;51.508;5.406;2023-03-22T15:14:10;100476.47;;;12.29;100.00
54042;BME280;41156;51.508;5.406;2023-03-22T15:17:11;100483.38;;;12.25;100.00
54042;BME280;41156;51.508;5.406;2023-03-22T15:20:17;100477.63;;;12.21;100.00
54042;BME280;41156;51.508;5.406;2023-03-22T15:23:21;100478.91;;;12.19;100.00
54042;BME280;41156;51.508;5.406;2023-03-22T15:26:25;100474.91;;;12.10;100.00
54042;BME280;41156;51.508;5.406;2023-03-22T15:29:27;100477.97;;;12.01;100.00
54042;BME280;41156;51.508;5.406;2023-03-22T15:32:33;100473.53;;;11.89;100.00
54042;BME280;41156;51.508;5.406;2023-03-22T15:35:33;100464.13;;;11.79;100.00
54042;BME280;41156;51.508;5.406;2023-03-22T15:38:38;100460.09;;;11.70;100.00
54042;BME280;41156;51.508;5.406;2023-03-22T15:41:40;100455.59;;;11.64;100.00
54042;BME280;41156;51.508;5.406;2023-03-22T15:44:49;100455.47;;;11.59;100.00
54042;BME280;41156;51.508;5.406;2023-03-22T15:47:52;100455.94;;;11.56;100.00
54042;BME280;41156;51.508;5.406;2023-03-22T15:50:53;100464.06;;;11.56;100.00
54042;BME280;41156;51.508;5.406;2023-03-22T15:54:01;100459.13;;;11.53;100.00
54042;BME280;41156;51.508;5.406;2023-03-22T15:57:17;100457.81;;;11.55;100.00
54042;BME280;41156;51.508;5.406;2023-03-22T16:00:21;100458.66;;;11.56;100.00
54042;BME280;41156;51.508;5.406;2023-03-22T16:03:22;100458.16;;;11.59;100.00
54042;BME280;41156;51.508;5.406;2023-03-22T16:06:28;100464.06;;;11.56;100.00
54042;BME280;41156;51.508;5.406;2023-03-22T16:09:28;100462.41;;;11.55;100.00
54042;BME280;41156;51.508;5.406;2023-03-22T16:12:29;100458.03;;;11.54;100.00
54042;BME280;41156;51.508;5.406;2023-03-22T16:15:33;100458.88;;;11.54;100.00
54042;BME280;41156;51.508;5.406;2023-03-22T16:18:33;100455.56;;;11.52;100.00
54042;BME280;41156;51.508;5.406;2023-03-22T16:21:35;100463.91;;;11.51;100.00
54042;BME280;41156;51.508;5.406;2023-03-22T16:24:35;100459.13;;;11.53;100.00
54042;BME280;41156;51.508;5.406;2023-03-22T16:27:35;100457.22;;;11.53;100.00
54042;BME280;41156;51.508;5.406;2023-03-22T16:30:40;100450.16;;;11.52;100.00
54042;BME280;41156;51.508;5.406;2023-03-22T16:33:42;100446.97;;;11.55;100.00
54042;BME280;41156;51.508;5.406;2023-03-22T16:36:43;100446.53;;;11.58;100.00
54042;BME280;41156;51.508;5.406;2023-03-22T16:39:44;100450.28;;;11.57;100.00
54042;BME280;41156;51.508;5.406;2023-03-22T16:42:45;100443.69;;;11.53;100.00
54042;BME280;41156;51.508;5.406;2023-03-22T16:45:45;100437.69;;;11.51;100.00
54042;BME280;41156;51.508;5.406;2023-03-22T16:48:47;100443.19;;;11.44;100.00
54042;BME280;41156;51.508;5.406;2023-03-22T16:51:48;100434.72;;;11.41;100.00
54042;BME280;41156;51.508;5.406;2023-03-22T16:54:50;100422.69;;;11.37;100.00
54042;BME280;41156;51.508;5.406;2023-03-22T16:57:51;100423.16;;;11.34;100.00